sensor_id;sensor_type;location;lat;lon;timestamp;noise_LAeq;noise_LA_min;noise_LA_max;noise_LA01;noise_LA95
76338;Laerm;20358;50.272;19.026;2023-05-19T00:02:48;40.27;34.84;59.23;;
76338;Laerm;20358;50.272;19.026;2023-05-19T00:06:12;43.62;35.04;62.72;;
76338;Laerm;20358;50.272;19.026;2023-05-19T00:09:22;41.80;35.27;61.69;;
76338;Laerm;20358;50.272;19.026;2023-05-19T00:12:32;42.78;35.09;58.90;;
76338;Laerm;20358;50.272;19.026;2023-05-19T00:15:42;40.57;35.73;58.57;;
76338;Laerm;20358;50.272;19.026;2023-05-19T00:18:51;41.14;35.28;58.01;;
76338;Laerm;20358;50.272;19.026;2023-05-19T00:21:59;42.28;35.07;62.84;;
76338;Laerm;20358;50.272;19.026;2023-05-19T00:25:20;42.64;35.24;59.89;;
76338;Laerm;20358;50.272;19.026;2023-05-19T00:28:27;42.51;34.92;59.08;;
76338;Laerm;20358;50.272;19.026;2023-05-19T00:31:35;41.62;34.45;60.60;;
76338;Laerm;20358;50.272;19.026;2023-05-19T00:34:44;43.36;34.94;65.46;;
76338;Laerm;20358;50.272;19.026;2023-05-19T00:37:51;42.78;35.23;58.52;;
76338;Laerm;20358;50.272;19.026;2023-05-19T00:40:58;37.93;34.92;56.49;;
76338;Laerm;20358;50.272;19.026;2023-05-19T00:44:05;38.02;34.95;56.75;;
76338;Laerm;20358;50.272;19.026;2023-05-19T00:47:15;43.35;35.17;61.46;;
76338;Laerm;20358;50.272;19.026;2023-05-19T00:50:21;44.19;35.70;67.86;;
76338;Laerm;20358;50.272;19.026;2023-05-19T00:53:31;43.27;34.57;69.30;;
76338;Laerm;20358;50.272;19.026;2023-05-19T00:56:49;38.47;35.02;57.47;;
76338;Laerm;20358;50.272;19.026;2023-05-19T00:59:56;40.46;35.38;57.59;;
76338;Laerm;20358;50.272;19.026;2023-05-19T01:03:05;38.79;34.83;50.10;;
76338;Laerm;20358;50.272;19.026;2023-05-19T01:06:34;43.22;34.88;67.34;;
76338;Laerm;20358;50.272;19.026;2023-05-19T01:09:42;43.77;35.20;62.93;;
76338;Laerm;20358;50.272;19.026;2023-05-19T01:12:48;46.90;35.70;65.88;;
76338;Laerm;20358;50.272;19.026;2023-05-19T01:16:04;44.71;34.67;60.87;;
76338;Laerm;20358;50.272;19.026;2023-05-19T01:23:38;41.01;34.70;54.38;;
76338;Laerm;20358;50.272;19.026;2023-05-19T01:27:30;39.01;34.74;58.39;;
76338;Laerm;20358;50.272;19.026;2023-05-19T01:30:51;40.30;35.51;64.26;;
76338;Laerm;20358;50.272;19.026;2023-05-19T01:34:00;43.54;35.48;66.50;;
76338;Laerm;20358;50.272;19.026;2023-05-19T01:37:07;45.59;35.32;71.13;;
76338;Laerm;20358;50.272;19.026;2023-05-19T01:40:14;42.54;35.45;64.66;;
76338;Laerm;20358;50.272;19.026;2023-05-19T01:43:37;42.36;35.23;67.49;;
76338;Laerm;20358;50.272;19.026;2023-05-19T01:47:09;43.65;35.07;63.41;;
76338;Laerm;20358;50.272;19.026;2023-05-19T01:50:22;42.96;34.93;53.70;;
76338;Laerm;20358;50.272;19.026;2023-05-19T01:53:29;42.47;35.44;58.47;;
76338;Laerm;20358;50.272;19.026;2023-05-19T01:56:45;45.80;35.14;75.50;;
76338;Laerm;20358;50.272;19.026;2023-05-19T02:00:20;42.81;35.21;60.10;;
76338;Laerm;20358;50.272;19.026;2023-05-19T02:03:52;42.83;35.20;61.41;;
76338;Laerm;20358;50.272;19.026;2023-05-19T02:07:09;40.35;35.39;52.26;;
76338;Laerm;20358;50.272;19.026;2023-05-19T02:10:26;43.41;35.66;66.62;;
76338;Laerm;20358;50.272;19.026;2023-05-19T02:13:42;46.77;36.37;69.51;;
76338;Laerm;20358;50.272;19.026;2023-05-19T02:16:49;42.10;35.61;55.86;;
76338;Laerm;20358;50.272;19.026;2023-05-19T02:19:58;45.11;35.46;62.19;;
76338;Laerm;20358;50.272;19.026;2023-05-19T02:23:06;44.76;35.23;58.95;;
76338;Laerm;20358;50.272;19.026;2023-05-19T02:26:30;44.09;35.04;59.82;;
76338;Laerm;20358;50.272;19.026;2023-05-19T02:29:39;42.85;35.37;55.04;;
76338;Laerm;20358;50.272;19.026;2023-05-19T02:32:44;47.51;36.51;71.05;;
76338;Laerm;20358;50.272;19.026;2023-05-19T02:36:10;47.57;36.52;68.25;;
76338;Laerm;20358;50.272;19.026;2023-05-19T02:39:16;46.67;35.96;70.74;;
76338;Laerm;20358;50.272;19.026;2023-05-19T02:42:22;42.64;36.45;57.29;;
76338;Laerm;20358;50.272;19.026;2023-05-19T02:45:47;46.49;36.87;63.23;;
76338;Laerm;20358;50.272;19.026;2023-05-19T02:49:12;47.41;37.37;70.00;;
76338;Laerm;20358;50.272;19.026;2023-05-19T02:52:21;48.16;36.86;66.04;;
76338;Laerm;20358;50.272;19.026;2023-05-19T02:55:45;47.24;36.48;62.35;;
76338;Laerm;20358;50.272;19.026;2023-05-19T02:59:11;48.93;37.37;63.66;;
76338;Laerm;20358;50.272;19.026;2023-05-19T03:02:17;46.79;36.91;66.92;;
76338;Laerm;20358;50.272;19.026;2023-05-19T03:05:23;49.65;37.84;74.52;;
76338;Laerm;20358;50.272;19.026;2023-05-19T03:08:32;49.07;38.89;65.59;;
76338;Laerm;20358;50.272;19.026;2023-05-19T03:11:41;49.08;37.55;66.71;;
76338;Laerm;20358;50.272;19.026;2023-05-19T03:15:07;50.42;38.80;67.04;;
76338;Laerm;20358;50.272;19.026;2023-05-19T03:18:27;49.57;39.14;69.09;;
76338;Laerm;20358;50.272;19.026;2023-05-19T03:21:33;48.39;39.37;62.82;;
76338;Laerm;20358;50.272;19.026;2023-05-19T03:25:01;48.45;38.72;69.57;;
76338;Laerm;20358;50.272;19.026;2023-05-19T03:28:26;49.29;38.52;69.06;;
76338;Laerm;20358;50.272;19.026;2023-05-19T03:31:40;51.40;39.62;71.47;;
76338;Laerm;20358;50.272;19.026;2023-05-19T03:35:06;49.47;38.59;67.72;;
76338;Laerm;20358;50.272;19.026;2023-05-19T03:38:13;54.82;44.72;70.78;;
76338;Laerm;20358;50.272;19.026;2023-05-19T03:41:28;53.10;39.75;69.91;;
76338;Laerm;20358;50.272;19.026;2023-05-19T03:44:36;51.66;40.11;65.71;;
76338;Laerm;20358;50.272;19.026;2023-05-19T03:47:42;53.54;39.10;70.41;;
76338;Laerm;20358;50.272;19.026;2023-05-19T03:51:53;54.26;41.88;69.17;;
76338;Laerm;20358;50.272;19.026;2023-05-19T03:55:42;53.61;40.39;70.23;;
76338;Laerm;20358;50.272;19.026;2023-05-19T04:04:04;50.58;41.45;68.31;;
76338;Laerm;20358;50.272;19.026;2023-05-19T04:07:46;53.25;40.35;68.27;;
76338;Laerm;20358;50.272;19.026;2023-05-19T04:10:53;52.20;40.46;69.28;;
76338;Laerm;20358;50.272;19.026;2023-05-19T04:13:58;51.18;40.42;68.05;;
76338;Laerm;20358;50.272;19.026;2023-05-19T04:17:08;51.97;40.04;75.86;;
76338;Laerm;20358;50.272;19.026;2023-05-19T04:20:13;51.76;41.58;73.30;;
76338;Laerm;20358;50.272;19.026;2023-05-19T04:23:20;53.55;42.23;73.21;;
76338;Laerm;20358;50.272;19.026;2023-05-19T04:26:44;53.66;45.18;71.36;;
76338;Laerm;20358;50.272;19.026;2023-05-19T04:34:37;55.15;44.17;73.42;;
76338;Laerm;20358;50.272;19.026;2023-05-19T04:37:52;53.03;42.44;68.41;;
76338;Laerm;20358;50.272;19.026;2023-05-19T04:41:03;54.78;43.37;72.60;;
76338;Laerm;20358;50.272;19.026;2023-05-19T04:44:30;53.88;44.37;73.90;;
76338;Laerm;20358;50.272;19.026;2023-05-19T04:47:55;51.87;41.63;71.64;;
76338;Laerm;20358;50.272;19.026;2023-05-19T04:51:05;53.61;44.08;70.08;;
76338;Laerm;20358;50.272;19.026;2023-05-19T04:54:48;54.90;45.62;71.61;;
76338;Laerm;20358;50.272;19.026;2023-05-19T05:03:23;53.39;44.20;73.36;;
76338;Laerm;20358;50.272;19.026;2023-05-19T05:06:34;53.10;43.77;71.12;;
76338;Laerm;20358;50.272;19.026;2023-05-19T05:09:42;54.55;44.29;71.93;;
76338;Laerm;20358;50.272;19.026;2023-05-19T05:12:53;53.91;45.96;70.09;;
76338;Laerm;20358;50.272;19.026;2023-05-19T05:16:01;53.49;43.28;71.26;;
76338;Laerm;20358;50.272;19.026;2023-05-19T05:19:11;53.24;42.46;68.62;;
76338;Laerm;20358;50.272;19.026;2023-05-19T05:22:21;54.90;44.16;73.60;;
76338;Laerm;20358;50.272;19.026;2023-05-19T05:30:26;53.96;44.72;72.86;;
76338;Laerm;20358;50.272;19.026;2023-05-19T05:34:29;55.61;45.39;73.94;;
76338;Laerm;20358;50.272;19.026;2023-05-19T05:38:48;55.56;43.25;75.36;;
76338;Laerm;20358;50.272;19.026;2023-05-19T05:41:54;54.31;45.40;72.53;;
76338;Laerm;20358;50.272;19.026;2023-05-19T05:45:01;63.00;45.42;86.64;;
76338;Laerm;20358;50.272;19.026;2023-05-19T05:48:09;57.44;48.97;74.85;;
76338;Laerm;20358;50.272;19.026;2023-05-19T05:51:17;55.66;46.32;73.09;;
76338;Laerm;20358;50.272;19.026;2023-05-19T05:54:30;54.35;46.04;73.77;;
76338;Laerm;20358;50.272;19.026;2023-05-19T06:01:57;54.05;44.03;71.73;;
76338;Laerm;20358;50.272;19.026;2023-05-19T06:11:06;54.32;44.73;75.76;;
76338;Laerm;20358;50.272;19.026;2023-05-19T06:14:33;55.30;43.10;74.13;;
76338;Laerm;20358;50.272;19.026;2023-05-19T06:18:03;56.28;43.33;74.70;;
76338;Laerm;20358;50.272;19.026;2023-05-19T06:21:10;52.86;43.55;74.28;;
76338;Laerm;20358;50.272;19.026;2023-05-19T06:24:16;54.77;45.11;70.13;;
76338;Laerm;20358;50.272;19.026;2023-05-19T06:27:26;51.71;42.83;69.69;;
76338;Laerm;20358;50.272;19.026;2023-05-19T06:35:49;52.48;42.18;69.62;;
76338;Laerm;20358;50.272;19.026;2023-05-19T06:39:15;53.31;45.10;73.14;;
76338;Laerm;20358;50.272;19.026;2023-05-19T06:42:22;52.08;42.75;72.00;;
76338;Laerm;20358;50.272;19.026;2023-05-19T06:45:50;54.52;44.97;76.45;;
76338;Laerm;20358;50.272;19.026;2023-05-19T06:48:58;52.49;43.68;70.29;;
76338;Laerm;20358;50.272;19.026;2023-05-19T06:52:08;53.13;45.20;73.83;;
76338;Laerm;20358;50.272;19.026;2023-05-19T07:05:10;54.95;43.18;77.11;;
76338;Laerm;20358;50.272;19.026;2023-05-19T07:08:54;52.97;42.73;74.97;;
76338;Laerm;20358;50.272;19.026;2023-05-19T07:12:01;51.64;43.21;70.54;;
76338;Laerm;20358;50.272;19.026;2023-05-19T07:15:09;53.68;44.04;77.56;;
76338;Laerm;20358;50.272;19.026;2023-05-19T07:18:16;51.55;43.89;68.85;;
76338;Laerm;20358;50.272;19.026;2023-05-19T07:21:25;53.27;43.61;72.56;;
76338;Laerm;20358;50.272;19.026;2023-05-19T07:24:31;51.86;43.75;72.64;;
76338;Laerm;20358;50.272;19.026;2023-05-19T07:27:37;53.56;43.46;74.24;;
76338;Laerm;20358;50.272;19.026;2023-05-19T07:31:01;52.87;42.85;74.46;;
76338;Laerm;20358;50.272;19.026;2023-05-19T07:34:08;54.28;44.20;73.77;;
76338;Laerm;20358;50.272;19.026;2023-05-19T07:37:17;52.55;44.03;71.89;;
76338;Laerm;20358;50.272;19.026;2023-05-19T07:40:30;54.09;43.30;73.49;;
76338;Laerm;20358;50.272;19.026;2023-05-19T07:43:36;52.33;43.05;69.55;;
76338;Laerm;20358;50.272;19.026;2023-05-19T07:46:42;51.87;42.61;71.80;;
76338;Laerm;20358;50.272;19.026;2023-05-19T07:49:48;54.20;44.99;73.55;;
76338;Laerm;20358;50.272;19.026;2023-05-19T07:52:57;52.85;43.98;72.90;;
76338;Laerm;20358;50.272;19.026;2023-05-19T07:56:03;52.37;42.21;72.51;;
76338;Laerm;20358;50.272;19.026;2023-05-19T08:03:12;52.99;42.76;72.76;;
76338;Laerm;20358;50.272;19.026;2023-05-19T08:06:20;54.28;43.79;74.16;;
76338;Laerm;20358;50.272;19.026;2023-05-19T08:12:58;54.56;43.36;74.66;;
76338;Laerm;20358;50.272;19.026;2023-05-19T08:16:04;54.44;42.47;73.09;;
76338;Laerm;20358;50.272;19.026;2023-05-19T08:19:10;53.36;43.45;76.19;;
76338;Laerm;20358;50.272;19.026;2023-05-19T08:22:16;51.25;42.00;69.66;;
76338;Laerm;20358;50.272;19.026;2023-05-19T08:25:25;50.97;41.94;69.60;;
76338;Laerm;20358;50.272;19.026;2023-05-19T08:28:31;51.63;42.57;67.94;;
76338;Laerm;20358;50.272;19.026;2023-05-19T08:31:38;53.31;43.00;73.11;;
76338;Laerm;20358;50.272;19.026;2023-05-19T08:34:44;52.90;42.43;71.67;;
76338;Laerm;20358;50.272;19.026;2023-05-19T08:37:51;52.99;41.98;75.41;;
76338;Laerm;20358;50.272;19.026;2023-05-19T08:40:59;52.08;43.03;71.37;;
76338;Laerm;20358;50.272;19.026;2023-05-19T08:54:13;54.60;43.96;72.88;;
76338;Laerm;20358;50.272;19.026;2023-05-19T08:58:37;52.24;42.68;73.74;;
76338;Laerm;20358;50.272;19.026;2023-05-19T09:02:00;52.50;42.09;73.67;;
76338;Laerm;20358;50.272;19.026;2023-05-19T09:05:20;55.56;43.65;74.48;;
76338;Laerm;20358;50.272;19.026;2023-05-19T09:08:26;52.92;44.62;68.72;;
76338;Laerm;20358;50.272;19.026;2023-05-19T09:11:33;53.01;43.60;72.02;;
76338;Laerm;20358;50.272;19.026;2023-05-19T09:14:42;50.53;41.68;63.87;;
76338;Laerm;20358;50.272;19.026;2023-05-19T09:17:49;55.46;45.50;72.90;;
76338;Laerm;20358;50.272;19.026;2023-05-19T09:20:58;52.70;42.99;69.85;;
76338;Laerm;20358;50.272;19.026;2023-05-19T09:24:25;54.53;42.99;73.46;;
76338;Laerm;20358;50.272;19.026;2023-05-19T09:36:15;51.99;43.64;69.48;;
76338;Laerm;20358;50.272;19.026;2023-05-19T09:46:02;52.42;42.79;70.05;;
76338;Laerm;20358;50.272;19.026;2023-05-19T09:54:13;53.46;43.78;72.47;;
76338;Laerm;20358;50.272;19.026;2023-05-19T09:58:52;54.57;45.20;71.00;;
76338;Laerm;20358;50.272;19.026;2023-05-19T10:02:40;53.08;45.33;74.50;;
76338;Laerm;20358;50.272;19.026;2023-05-19T10:15:42;51.46;43.28;70.77;;
76338;Laerm;20358;50.272;19.026;2023-05-19T10:19:02;53.93;43.07;72.90;;
76338;Laerm;20358;50.272;19.026;2023-05-19T10:26:15;52.26;43.76;68.77;;
76338;Laerm;20358;50.272;19.026;2023-05-19T10:29:48;52.02;42.52;71.31;;
76338;Laerm;20358;50.272;19.026;2023-05-19T10:41:20;54.61;44.91;73.91;;
76338;Laerm;20358;50.272;19.026;2023-05-19T10:44:50;54.55;42.36;75.46;;
76338;Laerm;20358;50.272;19.026;2023-05-19T10:47:58;53.22;45.25;70.54;;
76338;Laerm;20358;50.272;19.026;2023-05-19T10:51:07;53.43;40.41;74.34;;
76338;Laerm;20358;50.272;19.026;2023-05-19T10:54:43;53.41;44.24;72.52;;
76338;Laerm;20358;50.272;19.026;2023-05-19T10:58:14;53.25;42.25;70.07;;
76338;Laerm;20358;50.272;19.026;2023-05-19T11:01:21;51.40;42.74;68.85;;
76338;Laerm;20358;50.272;19.026;2023-05-19T11:05:06;52.93;43.54;74.00;;
76338;Laerm;20358;50.272;19.026;2023-05-19T11:08:13;52.93;41.53;72.90;;
76338;Laerm;20358;50.272;19.026;2023-05-19T11:11:19;52.27;41.60;69.42;;
76338;Laerm;20358;50.272;19.026;2023-05-19T11:14:29;54.88;42.52;75.29;;
76338;Laerm;20358;50.272;19.026;2023-05-19T11:17:35;51.29;41.96;69.93;;
76338;Laerm;20358;50.272;19.026;2023-05-19T11:20:41;53.69;43.16;73.50;;
76338;Laerm;20358;50.272;19.026;2023-05-19T11:23:47;53.57;45.19;69.33;;
76338;Laerm;20358;50.272;19.026;2023-05-19T11:26:56;52.46;42.42;72.34;;
76338;Laerm;20358;50.272;19.026;2023-05-19T11:30:11;53.79;41.40;74.66;;
76338;Laerm;20358;50.272;19.026;2023-05-19T11:37:23;55.20;42.47;72.83;;
76338;Laerm;20358;50.272;19.026;2023-05-19T11:52:13;54.93;42.76;74.86;;
76338;Laerm;20358;50.272;19.026;2023-05-19T11:55:21;52.41;42.68;70.19;;
76338;Laerm;20358;50.272;19.026;2023-05-19T11:58:27;50.63;39.49;67.64;;
76338;Laerm;20358;50.272;19.026;2023-05-19T12:01:34;52.64;44.28;72.70;;
76338;Laerm;20358;50.272;19.026;2023-05-19T12:04:40;52.57;42.89;70.60;;
76338;Laerm;20358;50.272;19.026;2023-05-19T12:07:51;52.98;43.66;72.30;;
76338;Laerm;20358;50.272;19.026;2023-05-19T12:10:57;53.86;40.87;71.86;;
76338;Laerm;20358;50.272;19.026;2023-05-19T12:14:05;53.13;43.61;70.29;;
76338;Laerm;20358;50.272;19.026;2023-05-19T12:17:13;54.04;42.35;70.91;;
76338;Laerm;20358;50.272;19.026;2023-05-19T12:20:20;53.20;38.98;72.00;;
76338;Laerm;20358;50.272;19.026;2023-05-19T12:23:31;53.63;43.15;74.79;;
76338;Laerm;20358;50.272;19.026;2023-05-19T12:26:37;54.03;42.58;71.02;;
76338;Laerm;20358;50.272;19.026;2023-05-19T12:29:49;54.18;43.56;72.21;;
76338;Laerm;20358;50.272;19.026;2023-05-19T12:32:57;53.10;43.22;72.21;;
76338;Laerm;20358;50.272;19.026;2023-05-19T12:36:04;55.28;43.50;76.07;;
76338;Laerm;20358;50.272;19.026;2023-05-19T12:39:14;56.06;39.26;70.73;;
76338;Laerm;20358;50.272;19.026;2023-05-19T12:42:24;55.10;44.42;76.81;;
76338;Laerm;20358;50.272;19.026;2023-05-19T12:45:34;53.18;40.68;63.28;;
76338;Laerm;20358;50.272;19.026;2023-05-19T12:48:41;55.28;43.56;68.97;;
76338;Laerm;20358;50.272;19.026;2023-05-19T12:51:51;56.55;47.32;72.53;;
76338;Laerm;20358;50.272;19.026;2023-05-19T12:55:06;54.28;42.76;73.38;;
76338;Laerm;20358;50.272;19.026;2023-05-19T12:58:15;55.51;41.24;69.13;;
76338;Laerm;20358;50.272;19.026;2023-05-19T13:01:21;56.91;44.40;73.58;;
76338;Laerm;20358;50.272;19.026;2023-05-19T13:04:28;54.34;45.06;72.50;;
76338;Laerm;20358;50.272;19.026;2023-05-19T13:07:34;55.58;45.05;74.92;;
76338;Laerm;20358;50.272;19.026;2023-05-19T13:10:46;53.16;42.07;66.96;;
76338;Laerm;20358;50.272;19.026;2023-05-19T13:13:52;54.11;43.78;73.09;;
76338;Laerm;20358;50.272;19.026;2023-05-19T13:16:59;53.09;42.65;68.73;;
76338;Laerm;20358;50.272;19.026;2023-05-19T13:20:07;54.26;42.26;67.70;;
76338;Laerm;20358;50.272;19.026;2023-05-19T13:23:15;55.66;42.64;69.75;;
76338;Laerm;20358;50.272;19.026;2023-05-19T13:26:24;53.98;42.13;70.84;;
76338;Laerm;20358;50.272;19.026;2023-05-19T13:29:30;53.93;40.79;69.51;;
76338;Laerm;20358;50.272;19.026;2023-05-19T13:32:36;52.64;37.86;71.74;;
76338;Laerm;20358;50.272;19.026;2023-05-19T13:35:43;55.61;40.48;71.97;;
76338;Laerm;20358;50.272;19.026;2023-05-19T13:38:48;53.98;41.60;72.22;;
76338;Laerm;20358;50.272;19.026;2023-05-19T13:42:00;55.32;43.65;71.78;;
76338;Laerm;20358;50.272;19.026;2023-05-19T13:45:08;55.29;44.59;69.75;;
76338;Laerm;20358;50.272;19.026;2023-05-19T13:48:14;53.97;44.12;67.92;;
76338;Laerm;20358;50.272;19.026;2023-05-19T13:51:20;54.48;42.57;72.55;;
76338;Laerm;20358;50.272;19.026;2023-05-19T13:54:27;52.94;40.72;71.23;;
76338;Laerm;20358;50.272;19.026;2023-05-19T13:57:35;54.42;41.98;76.26;;
76338;Laerm;20358;50.272;19.026;2023-05-19T14:00:44;52.81;43.13;70.15;;
76338;Laerm;20358;50.272;19.026;2023-05-19T14:03:51;53.64;39.88;66.48;;
76338;Laerm;20358;50.272;19.026;2023-05-19T14:06:57;54.05;40.32;70.81;;
76338;Laerm;20358;50.272;19.026;2023-05-19T14:10:05;55.09;45.89;71.01;;
76338;Laerm;20358;50.272;19.026;2023-05-19T14:13:15;55.22;40.14;77.16;;
76338;Laerm;20358;50.272;19.026;2023-05-19T14:16:34;53.23;42.37;70.45;;
76338;Laerm;20358;50.272;19.026;2023-05-19T14:19:40;54.38;40.22;70.61;;
76338;Laerm;20358;50.272;19.026;2023-05-19T14:22:46;54.69;43.80;70.82;;
76338;Laerm;20358;50.272;19.026;2023-05-19T14:25:52;53.09;40.55;65.77;;
76338;Laerm;20358;50.272;19.026;2023-05-19T14:29:01;52.83;41.33;70.89;;
76338;Laerm;20358;50.272;19.026;2023-05-19T14:32:07;53.70;42.83;69.53;;
76338;Laerm;20358;50.272;19.026;2023-05-19T14:35:13;54.29;38.90;71.23;;
76338;Laerm;20358;50.272;19.026;2023-05-19T14:38:19;54.25;39.88;73.26;;
76338;Laerm;20358;50.272;19.026;2023-05-19T14:41:25;52.31;39.20;73.15;;
76338;Laerm;20358;50.272;19.026;2023-05-19T14:44:35;52.55;42.03;69.18;;
76338;Laerm;20358;50.272;19.026;2023-05-19T14:47:40;52.50;38.97;68.57;;
76338;Laerm;20358;50.272;19.026;2023-05-19T14:50:49;53.02;39.68;67.85;;
76338;Laerm;20358;50.272;19.026;2023-05-19T14:53:55;53.70;41.95;69.88;;
76338;Laerm;20358;50.272;19.026;2023-05-19T14:57:02;53.64;40.10;68.93;;
76338;Laerm;20358;50.272;19.026;2023-05-19T15:00:13;53.15;39.70;67.01;;
76338;Laerm;20358;50.272;19.026;2023-05-19T15:03:20;52.50;38.73;69.63;;
76338;Laerm;20358;50.272;19.026;2023-05-19T15:06:26;54.07;42.33;65.69;;
76338;Laerm;20358;50.272;19.026;2023-05-19T15:09:33;54.03;38.96;70.54;;
76338;Laerm;20358;50.272;19.026;2023-05-19T15:12:38;53.75;41.94;70.05;;
76338;Laerm;20358;50.272;19.026;2023-05-19T15:15:47;54.87;40.56;71.23;;
76338;Laerm;20358;50.272;19.026;2023-05-19T15:19:03;53.50;41.26;71.06;;
76338;Laerm;20358;50.272;19.026;2023-05-19T15:22:09;53.41;43.58;70.42;;
76338;Laerm;20358;50.272;19.026;2023-05-19T15:25:15;51.41;42.70;71.20;;
76338;Laerm;20358;50.272;19.026;2023-05-19T15:28:21;55.40;43.64;73.71;;
76338;Laerm;20358;50.272;19.026;2023-05-19T15:31:31;52.66;41.86;68.55;;
76338;Laerm;20358;50.272;19.026;2023-05-19T15:34:40;54.98;43.71;76.33;;
76338;Laerm;20358;50.272;19.026;2023-05-19T15:37:46;54.17;44.23;69.42;;
76338;Laerm;20358;50.272;19.026;2023-05-19T15:40:52;54.62;42.87;71.50;;
76338;Laerm;20358;50.272;19.026;2023-05-19T15:43:58;52.53;39.85;66.83;;
76338;Laerm;20358;50.272;19.026;2023-05-19T15:47:07;54.21;43.83;68.60;;
76338;Laerm;20358;50.272;19.026;2023-05-19T15:50:13;51.98;40.59;67.04;;
76338;Laerm;20358;50.272;19.026;2023-05-19T15:53:20;53.70;39.97;73.24;;
76338;Laerm;20358;50.272;19.026;2023-05-19T15:56:25;52.84;41.71;71.31;;
76338;Laerm;20358;50.272;19.026;2023-05-19T15:59:32;52.80;43.87;68.13;;
76338;Laerm;20358;50.272;19.026;2023-05-19T16:02:40;53.42;41.93;74.09;;
76338;Laerm;20358;50.272;19.026;2023-05-19T16:05:46;52.15;40.24;66.14;;
76338;Laerm;20358;50.272;19.026;2023-05-19T16:08:52;53.08;42.95;72.86;;
76338;Laerm;20358;50.272;19.026;2023-05-19T16:11:59;53.71;43.90;69.37;;
76338;Laerm;20358;50.272;19.026;2023-05-19T16:15:06;53.40;41.38;69.28;;
76338;Laerm;20358;50.272;19.026;2023-05-19T16:18:15;54.19;41.59;70.98;;
76338;Laerm;20358;50.272;19.026;2023-05-19T16:21:21;52.38;40.44;69.60;;
76338;Laerm;20358;50.272;19.026;2023-05-19T16:24:27;54.35;39.50;72.29;;
76338;Laerm;20358;50.272;19.026;2023-05-19T16:27:33;52.91;41.83;70.20;;
76338;Laerm;20358;50.272;19.026;2023-05-19T16:30:39;52.15;41.64;67.58;;
76338;Laerm;20358;50.272;19.026;2023-05-19T16:33:48;53.61;43.40;70.48;;
76338;Laerm;20358;50.272;19.026;2023-05-19T16:36:54;52.58;42.89;73.38;;
76338;Laerm;20358;50.272;19.026;2023-05-19T16:40:00;52.92;42.32;72.80;;
76338;Laerm;20358;50.272;19.026;2023-05-19T16:43:07;53.08;43.85;72.11;;
76338;Laerm;20358;50.272;19.026;2023-05-19T16:46:12;52.39;41.36;70.35;;
76338;Laerm;20358;50.272;19.026;2023-05-19T16:49:21;53.88;42.23;71.65;;
76338;Laerm;20358;50.272;19.026;2023-05-19T16:52:27;52.31;40.88;69.37;;
76338;Laerm;20358;50.272;19.026;2023-05-19T16:55:34;61.34;41.54;80.10;;
76338;Laerm;20358;50.272;19.026;2023-05-19T16:58:40;51.06;38.43;66.85;;
76338;Laerm;20358;50.272;19.026;2023-05-19T17:01:46;52.88;42.97;70.33;;
76338;Laerm;20358;50.272;19.026;2023-05-19T17:04:55;52.15;40.27;68.63;;
76338;Laerm;20358;50.272;19.026;2023-05-19T17:08:01;52.21;41.84;68.50;;
76338;Laerm;20358;50.272;19.026;2023-05-19T17:11:07;52.28;37.59;68.79;;
76338;Laerm;20358;50.272;19.026;2023-05-19T17:14:15;52.30;37.63;70.79;;
76338;Laerm;20358;50.272;19.026;2023-05-19T17:17:21;51.07;39.41;68.26;;
76338;Laerm;20358;50.272;19.026;2023-05-19T17:20:30;51.37;38.01;71.85;;
76338;Laerm;20358;50.272;19.026;2023-05-19T17:23:36;52.24;39.50;71.40;;
76338;Laerm;20358;50.272;19.026;2023-05-19T17:26:43;51.46;38.41;71.83;;
76338;Laerm;20358;50.272;19.026;2023-05-19T17:29:48;51.09;38.91;68.37;;
76338;Laerm;20358;50.272;19.026;2023-05-19T17:32:55;50.20;40.44;68.63;;
76338;Laerm;20358;50.272;19.026;2023-05-19T17:36:05;52.43;38.47;73.82;;
76338;Laerm;20358;50.272;19.026;2023-05-19T17:39:12;50.76;40.31;68.87;;
76338;Laerm;20358;50.272;19.026;2023-05-19T17:42:18;51.14;37.53;71.28;;
76338;Laerm;20358;50.272;19.026;2023-05-19T17:45:25;56.87;40.70;72.62;;
76338;Laerm;20358;50.272;19.026;2023-05-19T17:48:31;52.17;37.48;69.43;;
76338;Laerm;20358;50.272;19.026;2023-05-19T17:51:41;51.30;38.24;70.21;;
76338;Laerm;20358;50.272;19.026;2023-05-19T17:54:48;52.87;40.28;70.75;;
76338;Laerm;20358;50.272;19.026;2023-05-19T17:57:56;53.01;38.14;76.58;;
76338;Laerm;20358;50.272;19.026;2023-05-19T18:01:02;50.49;37.88;69.86;;
76338;Laerm;20358;50.272;19.026;2023-05-19T18:04:10;50.48;39.93;69.89;;
76338;Laerm;20358;50.272;19.026;2023-05-19T18:07:23;51.62;37.97;69.13;;
76338;Laerm;20358;50.272;19.026;2023-05-19T18:10:36;51.22;40.50;71.52;;
76338;Laerm;20358;50.272;19.026;2023-05-19T18:13:42;50.77;39.52;68.78;;
76338;Laerm;20358;50.272;19.026;2023-05-19T18:16:49;51.96;38.75;73.31;;
76338;Laerm;20358;50.272;19.026;2023-05-19T18:19:55;49.45;37.75;68.45;;
76338;Laerm;20358;50.272;19.026;2023-05-19T18:23:05;52.65;37.15;72.53;;
76338;Laerm;20358;50.272;19.026;2023-05-19T18:26:11;49.84;38.62;68.62;;
76338;Laerm;20358;50.272;19.026;2023-05-19T18:29:18;52.14;38.68;75.04;;
76338;Laerm;20358;50.272;19.026;2023-05-19T18:32:24;52.54;39.95;73.18;;
76338;Laerm;20358;50.272;19.026;2023-05-19T18:35:30;51.42;39.19;70.64;;
76338;Laerm;20358;50.272;19.026;2023-05-19T18:38:39;50.19;36.80;71.08;;
76338;Laerm;20358;50.272;19.026;2023-05-19T18:41:46;50.76;36.12;72.22;;
76338;Laerm;20358;50.272;19.026;2023-05-19T18:44:52;51.07;38.90;73.79;;
76338;Laerm;20358;50.272;19.026;2023-05-19T18:47:58;48.25;35.81;68.19;;
76338;Laerm;20358;50.272;19.026;2023-05-19T18:51:05;53.64;38.20;74.75;;
76338;Laerm;20358;50.272;19.026;2023-05-19T18:54:16;48.76;37.21;66.58;;
76338;Laerm;20358;50.272;19.026;2023-05-19T18:57:23;49.94;38.86;68.06;;
76338;Laerm;20358;50.272;19.026;2023-05-19T19:00:29;49.16;38.69;68.22;;
76338;Laerm;20358;50.272;19.026;2023-05-19T19:03:35;56.84;36.25;82.26;;
76338;Laerm;20358;50.272;19.026;2023-05-19T19:06:42;51.08;36.54;68.89;;
76338;Laerm;20358;50.272;19.026;2023-05-19T19:09:50;51.48;40.19;68.13;;
76338;Laerm;20358;50.272;19.026;2023-05-19T19:12:57;50.52;37.22;69.41;;
76338;Laerm;20358;50.272;19.026;2023-05-19T19:16:04;47.48;38.12;66.61;;
76338;Laerm;20358;50.272;19.026;2023-05-19T19:19:11;49.75;36.20;70.17;;
76338;Laerm;20358;50.272;19.026;2023-05-19T19:22:17;50.84;39.67;71.10;;
76338;Laerm;20358;50.272;19.026;2023-05-19T19:25:26;49.99;37.41;68.19;;
76338;Laerm;20358;50.272;19.026;2023-05-19T19:28:32;49.40;37.71;70.22;;
76338;Laerm;20358;50.272;19.026;2023-05-19T19:31:38;50.98;38.63;73.06;;
76338;Laerm;20358;50.272;19.026;2023-05-19T19:34:44;50.97;37.91;72.79;;
76338;Laerm;20358;50.272;19.026;2023-05-19T19:37:51;49.55;35.88;73.25;;
76338;Laerm;20358;50.272;19.026;2023-05-19T19:41:01;48.26;36.68;68.87;;
76338;Laerm;20358;50.272;19.026;2023-05-19T19:44:08;50.44;38.89;69.43;;